Terminal Aerodrome Forecast
Issued by NWS Cleveland, OH

Home | Current Version | Previous Version | Graphics & Text | Print | Product List | Glossary On
Versions: 1 2 3 4 5 6 7 8 9 10 11 12 13 14 15 16 17 18 19
821
FTUS41 KCLE 260930 AAD
TAFERI
TAF AMD
KERI 260930Z 2610/2706 VRB06KT 5SM -RA BR SCT006 OVC070
      TEMPO 2610/2613 6SM BR BKN006
     FM261300 32009KT P6SM SCT008 BKN080
      TEMPO 2613/2615 BKN008
     FM261500 03014G20KT 6SM BR OVC010
     FM270300 04010KT P6SM BKN020=

USA.gov is the U.S. government's official web portal to all federal, state and local government web resources and services.